Bratislava, Slovakia
Current Conditions -  °F | °C
As of 11:30 AM on Saturday 25 Oct 2014 (Local Time) from LZIB Reporting Station
Overcast Overcast  
Wind Chill:   Ceiling: 700
Heat Index:   Visibility: 4mi
Dew Point:   Wind: 5mph
Humidity: 87%   Direction: 180°S
Pressure: 30.27"   Gusts: NA
Location:  48.16°N, 17.13°E
Report Text: LZIB 250930Z 18004KT 6000 BKN007 OVC012 08/06 Q1025 NOSIG
Loading
Personal Weather Stations






























Interactive Weather Map
Tropical Storm Tracking
New forecast layout! Learn more

10-Day Weather Forecast

Advertisements
Track Severe Weather on mobile